Time;durP1;ratioP1;P1;durP2;ratioP2;P2;SDS_P1;SDS_P2;PMS_P1;PMS_P2;Temp;Humidity;BMP_temperature;BMP_pressure;BME280_temperature;BME280_humidity;BME280_pressure;Samples;Min_cycle;Max_cycle;Signal;HPM_P1;HPM_P2
2021/08/12 00:00:21;;;;;;;28.52;17.65;;;;;;;15.13;100.00;101933.53;2616516;36;20039;-61
2021/08/12 00:02:49;;;;;;;26.35;17.20;;;;;;;15.09;100.00;101942.09;2616719;36;20118;-61
2021/08/12 00:05:17;;;;;;;26.20;18.35;;;;;;;15.07;100.00;101937.69;2616962;36;20114;-62
2021/08/12 00:07:45;;;;;;;28.85;18.02;;;;;;;15.00;100.00;101935.66;2617181;36;20038;-61
2021/08/12 00:10:14;;;;;;;24.48;18.48;;;;;;;14.93;100.00;101932.66;2616495;36;20168;-61
2021/08/12 00:12:42;;;;;;;29.55;19.10;;;;;;;14.98;100.00;101941.22;2616783;36;20106;-61
2021/08/12 00:15:12;;;;;;;32.35;19.52;;;;;;;14.94;100.00;101937.06;2616650;36;20622;-61
2021/08/12 00:17:41;;;;;;;26.40;18.23;;;;;;;14.94;100.00;101936.22;2616908;36;20026;-61
2021/08/12 00:20:11;;;;;;;26.23;18.73;;;;;;;14.89;100.00;101925.78;2617134;36;20080;-61
2021/08/12 00:22:40;;;;;;;25.58;18.33;;;;;;;14.93;100.00;101927.25;2617122;36;20029;-62
2021/08/12 00:25:10;;;;;;;24.27;17.00;;;;;;;14.98;100.00;101922.25;2616658;36;20035;-61
2021/08/12 00:27:38;;;;;;;24.77;17.83;;;;;;;14.94;100.00;101923.50;2617193;36;20022;-61
2021/08/12 00:30:08;;;;;;;30.08;19.38;;;;;;;14.99;100.00;101925.84;2616900;36;20495;-62
2021/08/12 00:32:37;;;;;;;28.60;20.02;;;;;;;15.02;100.00;101920.13;2616744;36;20630;-61
2021/08/12 00:35:07;;;;;;;26.05;18.95;;;;;;;14.96;100.00;101921.53;2616981;36;20117;-61
2021/08/12 00:37:35;;;;;;;32.70;20.75;;;;;;;14.94;100.00;101920.81;2616716;36;20026;-61
2021/08/12 00:40:03;;;;;;;30.30;20.42;;;;;;;14.84;100.00;101917.22;2616738;36;20153;-61
2021/08/12 00:42:32;;;;;;;31.45;21.17;;;;;;;14.73;100.00;101922.75;2614612;31;20566;-61
2021/08/12 00:45:00;;;;;;;32.00;20.57;;;;;;;14.80;100.00;101932.06;2616386;36;20133;-61
2021/08/12 00:47:29;;;;;;;30.60;20.17;;;;;;;14.88;100.00;101940.34;2616624;36;20618;-62
2021/08/12 00:49:59;;;;;;;32.03;21.35;;;;;;;14.88;100.00;101929.50;2616815;31;20042;-61
2021/08/12 00:52:27;;;;;;;26.58;19.48;;;;;;;14.88;100.00;101929.50;2616327;36;20026;-61
2021/08/12 00:54:56;;;;;;;31.00;20.50;;;;;;;14.85;100.00;101929.78;2616608;36;20061;-61
2021/08/12 00:57:24;;;;;;;;;;;;;;;14.89;100.00;101915.81;2616190;36;20034;-61
2021/08/12 00:59:53;;;;;;;25.88;19.23;;;;;;;14.84;100.00;101922.63;2616232;36;20001;-61
2021/08/12 01:02:21;;;;;;;29.90;19.42;;;;;;;14.77;100.00;101919.63;2615884;36;20126;-61
2021/08/12 01:04:51;;;;;;;29.70;21.33;;;;;;;14.84;100.00;101922.63;2616484;36;20113;-61
2021/08/12 01:07:25;;;;;;;;;;;;;;;14.88;100.00;101922.25;2616910;36;20089;-62
2021/08/12 01:09:59;;;;;;;34.38;21.90;;;;;;;14.84;100.00;101911.78;2617303;36;20029;-61
2021/08/12 01:12:34;;;;;;;31.35;23.30;;;;;;;14.66;100.00;101907.06;2616890;31;20018;-61
2021/08/12 01:15:07;;;;;;;30.90;22.13;;;;;;;14.70;100.00;101905.75;2617230;36;20155;-61
2021/08/12 01:17:42;;;;;;;32.70;23.35;;;;;;;14.78;100.00;101896.97;2617351;36;20073;-61
2021/08/12 01:20:47;;;;;;;38.30;23.08;;;;;;;14.81;100.00;101887.69;2617432;36;20118;-61
2021/08/12 01:23:18;;;;;;;39.95;24.67;;;;;;;14.84;100.00;101899.13;2617359;36;20077;-61
2021/08/12 01:25:49;;;;;;;45.45;27.08;;;;;;;14.79;100.00;101900.53;2617337;36;20038;-61
2021/08/12 01:28:21;;;;;;;36.58;24.75;;;;;;;14.77;100.00;101899.81;2617225;36;20081;-61
2021/08/12 01:30:59;;;;;;;43.40;27.00;;;;;;;14.78;100.00;101896.97;2617277;36;20022;-61
2021/08/12 01:33:36;;;;;;;34.97;24.20;;;;;;;14.79;100.00;101909.50;2616852;36;20031;-62
2021/08/12 01:36:08;;;;;;;34.72;23.73;;;;;;;14.79;100.00;101908.66;2617228;36;20053;-61
2021/08/12 01:38:39;;;;;;;38.88;26.92;;;;;;;14.76;100.00;101903.50;2617380;36;20065;-61
2021/08/12 01:41:08;;;;;;;46.28;28.50;;;;;;;14.70;100.00;101905.75;2617111;36;20042;-61
2021/08/12 01:43:36;;;;;;;37.53;24.85;;;;;;;14.68;100.00;101901.50;2617370;36;20512;-61
2021/08/12 01:46:08;;;;;;;40.40;26.50;;;;;;;14.68;100.00;101907.75;2616942;36;20034;-61
2021/08/12 01:48:36;;;;;;;42.40;26.55;;;;;;;14.62;100.00;101911.03;2617216;36;20026;-61
2021/08/12 01:51:07;;;;;;;38.45;25.55;;;;;;;14.62;100.00;101900.19;2617528;36;20121;-61
2021/08/12 01:53:36;;;;;;;42.80;26.95;;;;;;;14.57;100.00;101905.13;2617621;36;20073;-61
2021/08/12 01:56:05;;;;;;;41.67;27.67;;;;;;;14.53;100.00;101903.66;2617039;36;20150;-61
2021/08/12 01:58:34;;;;;;;43.95;28.67;;;;;;;14.53;100.00;101898.25;2617533;36;20534;-61
2021/08/12 02:01:03;;;;;;;37.97;25.40;;;;;;;14.57;100.00;101896.97;2616920;36;20116;-61
2021/08/12 02:03:33;;;;;;;36.53;25.08;;;;;;;14.60;100.00;101896.72;2617019;36;20077;-61
2021/08/12 02:06:02;;;;;;;42.17;23.92;;;;;;;14.58;100.00;101884.31;2617150;31;20069;-61
2021/08/12 02:08:32;;;;;;;35.60;23.55;;;;;;;14.62;100.00;101885.75;2616888;36;20081;-61
2021/08/12 02:11:01;;;;;;;33.75;23.25;;;;;;;14.61;100.00;101890.34;2617015;36;20027;-61
2021/08/12 02:13:29;;;;;;;35.30;22.17;;;;;;;14.62;100.00;101897.47;2617089;36;20038;-61
2021/08/12 02:15:57;;;;;;;29.52;20.77;;;;;;;14.67;100.00;101900.63;2616525;36;20076;-61
2021/08/12 02:18:26;;;;;;;34.60;22.60;;;;;;;14.59;100.00;101899.56;2617406;31;20561;-61
2021/08/12 02:21:01;;;;;;;34.00;22.15;;;;;;;14.55;100.00;101898.97;2617436;36;20114;-61
2021/08/12 02:23:35;;;;;;;35.95;21.98;;;;;;;14.54;100.00;101894.56;2616716;36;20133;-61
2021/08/12 02:26:10;;;;;;;28.92;21.02;;;;;;;14.54;100.00;101894.56;2616987;36;20121;-61
2021/08/12 02:28:39;;;;;;;31.77;20.42;;;;;;;14.54;100.00;101895.41;2617286;36;20583;-61
2021/08/12 02:31:08;;;;;;;27.00;18.90;;;;;;;14.58;100.00;101895.16;2617484;31;20037;-61
2021/08/12 02:36:18;;;;;;;28.65;19.63;;;;;;;14.51;100.00;101882.13;2616512;36;20037;-61
2021/08/12 02:38:50;;;;;;;27.48;17.92;;;;;;;14.58;100.00;101879.75;2617510;36;20149;-61
2021/08/12 02:41:21;;;;;;;26.52;16.75;;;;;;;14.60;100.00;101880.44;2616875;36;20019;-61
2021/08/12 02:43:50;;;;;;;25.35;17.42;;;;;;;14.56;100.00;101884.44;2617942;36;20424;-62
2021/08/12 02:46:21;;;;;;;24.30;17.83;;;;;;;14.55;100.00;101877.31;2617642;36;20404;-61
2021/08/12 02:48:50;;;;;;;25.52;16.30;;;;;;;14.57;100.00;101880.72;2617330;36;20110;-61
2021/08/12 02:51:19;;;;;;;24.83;17.88;;;;;;;14.53;100.00;101887.41;2617785;36;20043;-61
2021/08/12 02:53:48;;;;;;;28.75;18.92;;;;;;;14.48;100.00;101884.28;2617486;36;20105;-61
2021/08/12 02:56:18;;;;;;;25.75;17.63;;;;;;;14.52;100.00;101878.44;2616997;36;20130;-61
2021/08/12 02:58:47;;;;;;;25.00;18.02;;;;;;;14.49;100.00;101875.16;2617301;36;20531;-61
2021/08/12 03:01:17;;;;;;;22.55;16.90;;;;;;;14.48;100.00;101871.56;2617023;36;20129;-61
2021/08/12 03:03:48;;;;;;;27.40;17.30;;;;;;;14.50;100.00;101871.44;2617013;36;20138;-61
2021/08/12 03:06:20;;;;;;;24.65;18.30;;;;;;;14.55;100.00;101880.03;2618342;31;20038;-61
2021/08/12 03:08:52;;;;;;;22.65;16.73;;;;;;;14.54;100.00;101875.59;2617422;36;20030;-61
2021/08/12 03:11:22;;;;;;;25.98;16.75;;;;;;;14.51;100.00;101867.72;2617223;31;20133;-61
2021/08/12 03:13:53;;;;;;;27.30;17.50;;;;;;;14.52;100.00;101861.34;2617529;36;20034;-61
2021/08/12 03:16:22;;;;;;;24.73;17.65;;;;;;;14.54;100.00;101862.03;2617030;36;20157;-61
2021/08/12 03:18:51;;;;;;;25.60;17.30;;;;;;;14.48;100.00;101870.72;2617625;36;20049;-61
2021/08/12 03:21:19;;;;;;;26.50;17.15;;;;;;;14.53;100.00;101865.72;2616965;36;20053;-62
2021/08/12 03:23:47;;;;;;;25.33;17.47;;;;;;;14.48;100.00;101863.44;2617490;36;20033;-61
2021/08/12 03:26:19;;;;;;;22.48;16.23;;;;;;;14.52;100.00;101864.03;2617008;36;20076;-61
2021/08/12 03:28:47;;;;;;;23.85;15.57;;;;;;;14.46;100.00;101862.75;2617232;36;20073;-61
2021/08/12 03:31:15;;;;;;;24.95;16.38;;;;;;;14.51;100.00;101862.31;2616811;36;20034;-62
2021/08/12 03:33:44;;;;;;;22.90;16.52;;;;;;;14.42;100.00;101868.56;2617601;36;20122;-61
2021/08/12 03:36:12;;;;;;;23.70;16.30;;;;;;;14.44;100.00;101866.56;2616877;36;20041;-61
2021/08/12 03:38:40;;;;;;;22.52;16.58;;;;;;;14.39;100.00;101861.56;2617156;36;20042;-62
2021/08/12 03:41:09;;;;;;;25.55;16.25;;;;;;;14.39;100.00;101858.84;2616947;36;20626;-62
2021/08/12 03:43:38;;;;;;;21.73;15.93;;;;;;;14.34;100.00;101861.13;2616650;36;20501;-61
2021/08/12 03:46:06;;;;;;;25.17;16.98;;;;;;;14.31;100.00;101853.25;2616634;36;20690;-61
2021/08/12 03:48:34;;;;;;;26.20;17.15;;;;;;;14.30;100.00;101854.25;2616381;36;20065;-62
2021/08/12 03:51:03;;;;;;;21.33;15.65;;;;;;;14.31;100.00;101855.97;2616709;36;20042;-61
2021/08/12 03:53:31;;;;;;;23.02;16.27;;;;;;;14.20;100.00;101854.22;2616936;36;20141;-61
2021/08/12 03:56:00;;;;;;;27.27;17.48;;;;;;;14.19;100.00;101857.91;2616860;36;20658;-61
2021/08/12 03:58:28;;;;;;;27.67;16.95;;;;;;;14.17;100.00;101859.91;2616321;36;20052;-61
2021/08/12 04:00:58;;;;;;;26.80;18.00;;;;;;;14.13;100.00;101864.75;2617042;31;20053;-61
2021/08/12 04:03:26;;;;;;;28.25;18.05;;;;;;;14.08;100.00;101866.13;2617210;36;20153;-61
2021/08/12 04:05:55;;;;;;;30.00;19.58;;;;;;;13.95;100.00;101867.19;2617229;36;20252;-61
2021/08/12 04:08:23;;;;;;;29.00;18.63;;;;;;;13.98;100.00;101863.38;2617778;31;20489;-62
2021/08/12 04:10:51;;;;;;;31.70;19.77;;;;;;;13.91;100.00;101863.03;2617266;36;20026;-61
2021/08/12 04:13:20;;;;;;;30.88;18.52;;;;;;;13.91;100.00;101875.72;2616967;36;20550;-61
2021/08/12 04:15:48;;;;;;;30.70;21.38;;;;;;;13.87;100.00;101871.56;2617091;36;20146;-61
2021/08/12 04:18:17;;;;;;;29.95;19.65;;;;;;;13.82;100.00;101872.84;2617059;36;20166;-61
2021/08/12 04:20:46;;;;;;;27.90;19.67;;;;;;;13.88;100.00;101866.00;2616933;36;20053;-61
2021/08/12 04:23:14;;;;;;;30.50;20.60;;;;;;;13.85;100.00;101866.28;2618012;31;20510;-61
2021/08/12 04:25:43;;;;;;;32.05;22.42;;;;;;;13.79;100.00;101869.50;2617061;36;20141;-61
2021/08/12 04:28:11;;;;;;;39.17;23.27;;;;;;;13.75;100.00;101870.75;2617028;36;20022;-61
2021/08/12 04:30:40;;;;;;;31.80;21.50;;;;;;;13.79;100.00;101866.81;2617232;36;20026;-61
2021/08/12 04:33:08;;;;;;;32.00;21.25;;;;;;;13.86;100.00;101880.69;2617135;36;20038;-60
2021/08/12 04:35:38;;;;;;;29.35;21.05;;;;;;;13.91;100.00;101879.25;2617179;36;20038;-61
2021/08/12 04:38:06;;;;;;;32.15;21.15;;;;;;;13.90;100.00;101876.69;2616973;36;20026;-62
2021/08/12 04:40:34;;;;;;;31.70;22.70;;;;;;;13.95;100.00;101878.00;2617143;36;20101;-61
2021/08/12 04:43:03;;;;;;;34.53;23.10;;;;;;;13.92;100.00;101878.28;2617483;36;20068;-61
2021/08/12 04:45:31;;;;;;;33.08;21.50;;;;;;;13.96;100.00;101879.75;2617786;36;20157;-61
2021/08/12 04:48:03;;;;;;;33.47;23.20;;;;;;;14.02;100.00;101881.91;2617887;36;20053;-61
2021/08/12 04:50:34;;;;;;;28.67;21.60;;;;;;;14.10;100.00;101883.94;2617932;36;20030;-61
2021/08/12 04:53:03;;;;;;;34.50;22.38;;;;;;;14.15;100.00;101878.16;2617707;36;20028;-61
2021/08/12 04:55:31;;;;;;;32.83;22.33;;;;;;;14.26;100.00;101886.16;2617801;36;20539;-61
2021/08/12 04:58:00;;;;;;;32.20;22.87;;;;;;;14.24;100.00;101881.91;2617737;36;20106;-61
2021/08/12 05:00:28;;;;;;;32.95;22.48;;;;;;;14.23;100.00;101882.88;2617690;31;20479;-61
2021/08/12 05:02:56;;;;;;;27.80;21.48;;;;;;;14.32;100.00;101890.19;2617963;36;20488;-61
2021/08/12 05:05:25;;;;;;;28.70;21.08;;;;;;;14.34;100.00;101897.19;2618917;31;20626;-61
2021/08/12 05:07:53;;;;;;;29.43;20.13;;;;;;;14.22;100.00;101895.53;2618296;31;20064;-61
2021/08/12 05:10:22;;;;;;;33.83;23.30;;;;;;;14.22;100.00;101890.13;2617738;36;20043;-61
2021/08/12 05:12:53;;;;;;;35.55;23.20;;;;;;;14.26;100.00;101891.56;2617851;36;20038;-61
2021/08/12 05:15:21;;;;;;;33.75;23.77;;;;;;;14.28;100.00;101888.72;2617894;36;20062;-61
2021/08/12 05:17:49;;;;;;;32.35;22.02;;;;;;;14.35;100.00;101892.63;2617671;36;20078;-62
2021/08/12 05:20:18;;;;;;;32.22;21.95;;;;;;;14.43;100.00;101890.09;2617731;36;20030;-60
2021/08/12 05:22:46;;;;;;;28.93;20.90;;;;;;;14.48;100.00;101887.81;2617706;36;20033;-62
2021/08/12 05:25:14;;;;;;;32.45;20.20;;;;;;;14.51;100.00;101887.53;2617355;36;20539;-61
2021/08/12 05:27:43;;;;;;;27.77;20.25;;;;;;;14.49;100.00;101886.00;2617637;36;20061;-61
2021/08/12 05:30:13;;;;;;;32.10;20.60;;;;;;;14.52;100.00;101891.13;2617272;31;20165;-61
2021/08/12 05:32:41;;;;;;;32.08;20.23;;;;;;;14.55;100.00;101883.56;2617694;36;20084;-62
2021/08/12 05:35:11;;;;;;;27.88;19.35;;;;;;;14.58;100.00;101887.88;2617567;36;20138;-61
2021/08/12 05:37:39;;;;;;;28.48;20.48;;;;;;;14.64;100.00;101878.38;2617668;31;20046;-61
2021/08/12 05:40:09;;;;;;;32.22;20.40;;;;;;;14.63;100.00;101885.63;2617372;36;20161;-62
2021/08/12 05:42:37;;;;;;;29.75;18.58;;;;;;;14.60;100.00;101883.16;2617821;36;20038;-61
2021/08/12 05:45:08;;;;;;;27.33;19.20;;;;;;;14.59;100.00;101886.88;2617367;36;20125;-61
2021/08/12 05:47:36;;;;;;;26.73;17.58;;;;;;;14.60;100.00;101883.16;2617765;36;20121;-61
2021/08/12 05:50:05;;;;;;;28.95;18.70;;;;;;;14.66;100.00;101888.09;2617352;36;20034;-62
2021/08/12 05:52:33;;;;;;;27.35;19.02;;;;;;;14.65;100.00;101875.53;2615653;31;20522;-61
2021/08/12 05:55:02;;;;;;;29.75;18.48;;;;;;;14.66;100.00;101879.97;2617363;36;20114;-62
2021/08/12 05:57:30;;;;;;;25.13;18.55;;;;;;;14.69;100.00;101876.97;2617419;36;20091;-61
2021/08/12 05:59:58;;;;;;;26.80;17.83;;;;;;;14.82;100.00;101871.28;2617437;36;20088;-61
2021/08/12 06:02:28;;;;;;;27.38;18.67;;;;;;;14.71;100.00;101869.53;2617508;36;20046;-61
2021/08/12 06:04:57;;;;;;;24.65;17.25;;;;;;;14.75;100.00;101880.94;2617720;36;20022;-61
2021/08/12 06:07:25;;;;;;;26.07;18.97;;;;;;;14.74;100.00;101887.38;2617558;36;20536;-61
2021/08/12 06:09:53;;;;;;;24.13;17.35;;;;;;;14.82;100.00;101882.13;2618054;36;20567;-62
2021/08/12 06:12:21;;;;;;;26.40;18.05;;;;;;;14.86;100.00;101894.41;2617275;36;20043;-61
2021/08/12 06:14:49;;;;;;;26.15;18.83;;;;;;;14.88;100.00;101891.53;2617523;36;20038;-61
2021/08/12 06:17:18;;;;;;;24.17;18.60;;;;;;;14.93;100.00;101899.25;2617664;36;20049;-61
2021/08/12 06:19:47;;;;;;;27.65;18.77;;;;;;;15.00;100.00;101895.88;2617495;36;20026;-62
2021/08/12 06:22:15;;;;;;;25.20;19.08;;;;;;;15.11;100.00;101907.59;2617383;36;20113;-61
2021/08/12 06:24:44;;;;;;;26.65;18.95;;;;;;;15.13;100.00;101901.00;2617402;36;20035;-62
2021/08/12 06:27:12;;;;;;;24.92;19.02;;;;;;;15.23;100.00;101906.44;2617728;36;20026;-62
2021/08/12 06:29:40;;;;;;;22.13;17.73;;;;;;;15.44;100.00;101900.03;2617264;36;20080;-61
2021/08/12 06:32:10;;;;;;;24.75;18.27;;;;;;;15.62;100.00;101901.06;2617453;36;20026;-62
2021/08/12 06:34:38;;;;;;;22.80;16.50;;;;;;;15.78;100.00;101900.47;2617545;36;20030;-61
2021/08/12 06:37:08;;;;;;;23.70;17.80;;;;;;;15.92;100.00;101913.59;2617543;36;20114;-61
2021/08/12 06:39:36;;;;;;;27.08;18.17;;;;;;;15.99;100.00;101899.44;2617514;36;20081;-61
2021/08/12 06:42:05;;;;;;;23.63;15.75;;;;;;;16.26;100.00;101893.22;2617572;36;20133;-60
2021/08/12 06:44:33;;;;;;;18.05;15.00;;;;;;;16.49;100.00;101898.28;2617664;36;20023;-61
2021/08/12 06:47:01;;;;;;;18.50;14.10;;;;;;;16.54;100.00;101890.56;2617861;36;20509;-61
2021/08/12 06:49:29;;;;;;;19.52;14.63;;;;;;;16.58;100.00;101886.53;2617569;36;20049;-61
2021/08/12 06:51:58;;;;;;;18.83;14.80;;;;;;;16.79;100.00;101884.38;2617562;36;20041;-61
2021/08/12 06:54:28;;;;;;;20.60;14.90;;;;;;;16.92;100.00;101883.22;2617612;36;20408;-61
2021/08/12 06:56:56;;;;;;;18.88;14.68;;;;;;;17.16;100.00;101883.47;2617304;36;20154;-61
2021/08/12 06:59:24;;;;;;;19.03;15.10;;;;;;;17.20;100.00;101880.47;2618200;31;20520;-61
2021/08/12 07:01:52;;;;;;;18.92;14.88;;;;;;;17.41;100.00;101883.69;2617213;36;20177;-61
2021/08/12 07:07:02;;;;;;;20.48;15.27;;;;;;;17.48;100.00;101879.34;2614637;36;20797;-61
2021/08/12 07:09:32;;;;;;;21.37;15.30;;;;;;;17.57;100.00;101880.28;2617515;36;20081;-60
2021/08/12 07:12:00;;;;;;;18.80;15.07;;;;;;;17.56;100.00;101885.88;2617448;31;20165;-60
2021/08/12 07:14:28;;;;;;;21.43;15.73;;;;;;;17.67;100.00;101889.22;2617274;36;20039;-61
2021/08/12 07:16:57;;;;;;;18.90;14.65;;;;;;;17.71;100.00;101889.75;2617410;31;20038;-61
2021/08/12 07:19:26;;;;;;;20.63;14.65;;;;;;;17.96;100.00;101874.50;2617411;31;20038;-61
2021/08/12 07:21:54;;;;;;;20.40;15.75;;;;;;;18.10;100.00;101883.09;2618035;36;20446;-61
2021/08/12 07:24:24;;;;;;;22.33;15.60;;;;;;;18.52;100.00;101885.00;2617256;31;20188;-61
2021/08/12 07:26:54;;;;;;;21.10;16.05;;;;;;;18.54;100.00;101880.25;2617409;36;20026;-61
2021/08/12 07:29:22;;;;;;;26.10;17.50;;;;;;;18.34;100.00;101885.06;2617435;36;20038;-62
2021/08/12 07:31:51;;;;;;;25.63;17.95;;;;;;;18.50;100.00;101885.16;2617303;36;20093;-61
2021/08/12 07:34:19;;;;;;;21.08;16.48;;;;;;;18.84;100.00;101892.44;2617674;36;20097;-62
2021/08/12 07:36:48;;;;;;;23.08;16.35;;;;;;;18.69;100.00;101905.00;2618092;31;20616;-61
2021/08/12 07:39:17;;;;;;;23.42;18.08;;;;;;;18.73;100.00;101900.94;2617219;36;20031;-62
2021/08/12 07:41:46;;;;;;;22.83;16.80;;;;;;;18.83;100.00;101896.22;2617282;36;20117;-63
2021/08/12 07:44:16;;;;;;;23.85;17.40;;;;;;;19.05;100.00;101894.78;2617062;36;20030;-62
2021/08/12 07:46:44;;;;;;;25.48;18.75;;;;;;;19.13;100.00;101896.66;2617197;36;20539;-63
2021/08/12 07:49:12;;;;;;;27.27;18.95;;;;;;;19.30;100.00;101896.69;2617082;36;20046;-62
2021/08/12 07:51:41;;;;;;;26.80;17.98;;;;;;;19.57;100.00;101896.38;2617484;36;20022;-63
2021/08/12 07:54:09;;;;;;;26.13;18.47;;;;;;;19.51;100.00;101890.75;2617032;36;20110;-63
2021/08/12 07:56:37;;;;;;;25.87;17.37;;;;;;;19.28;100.00;101887.81;2617054;36;20374;-63
2021/08/12 07:59:05;;;;;;;25.33;16.83;;;;;;;19.70;100.00;101895.84;2617163;36;20080;-63
2021/08/12 08:01:35;;;;;;;23.97;17.33;;;;;;;19.91;100.00;101889.88;2617361;31;20378;-62
2021/08/12 08:04:04;;;;;;;26.35;18.35;;;;;;;19.75;100.00;101881.69;2616909;36;20044;-62
2021/08/12 08:06:32;;;;;;;26.17;16.52;;;;;;;20.01;100.00;101877.91;2617803;36;20455;-63
2021/08/12 08:09:00;;;;;;;25.88;17.17;;;;;;;19.80;100.00;101886.66;2617097;36;20038;-62
2021/08/12 08:11:30;;;;;;;23.17;17.13;;;;;;;19.99;100.00;101886.28;2617202;36;20106;-62
2021/08/12 08:13:58;;;;;;;24.52;16.83;;;;;;;19.84;100.00;101886.13;2617122;36;20124;-62
2021/08/12 08:16:27;;;;;;;24.83;17.70;;;;;;;19.78;100.00;101889.56;2617440;36;20030;-62
2021/08/12 08:18:57;;;;;;;;;;;;;;;19.77;100.00;101883.22;2618324;36;20962;-62
2021/08/12 08:21:25;;;;;;;25.27;18.42;;;;;;;19.86;100.00;101883.22;2618034;36;19942;-62
2021/08/12 08:23:53;;;;;;;22.73;16.75;;;;;;;19.97;100.00;101882.88;2617971;36;20069;-62
2021/08/12 08:26:22;;;;;;;22.77;16.65;;;;;;;20.13;100.00;101888.31;2617691;36;20088;-62
2021/08/12 08:28:50;;;;;;;22.33;16.92;;;;;;;20.29;100.00;101884.69;2618947;31;20481;-62
2021/08/12 08:31:18;;;;;;;21.33;15.87;;;;;;;20.30;100.00;101885.53;2618017;36;20125;-63
2021/08/12 08:33:46;;;;;;;26.07;17.27;;;;;;;20.22;100.00;101880.09;2617960;36;20315;-62
2021/08/12 08:36:16;;;;;;;26.50;17.73;;;;;;;20.44;100.00;101878.50;2617653;36;20295;-62
2021/08/12 08:38:44;;;;;;;23.67;16.52;;;;;;;20.54;100.00;101873.66;2617933;36;20033;-62
2021/08/12 08:41:13;;;;;;;21.40;15.75;;;;;;;20.87;100.00;101873.53;2617842;36;20173;-63
2021/08/12 08:43:46;;;;;;;25.17;14.70;;;;;;;20.89;100.00;101885.16;2618061;36;20054;-62
2021/08/12 08:46:16;;;;;;;21.00;15.48;;;;;;;21.10;100.00;101883.69;2617726;31;20026;-62
2021/08/12 08:48:48;;;;;;;27.33;14.98;;;;;;;21.34;100.00;101879.91;2618034;36;20038;-63
2021/08/12 08:51:17;;;;;;;21.50;16.45;;;;;;;21.24;100.00;101874.66;2617787;36;20076;-62
2021/08/12 08:53:46;;;;;;;21.27;14.60;;;;;;;21.09;100.00;101876.50;2618383;36;20442;-62
2021/08/12 08:56:14;;;;;;;21.33;15.20;;;;;;;21.20;100.00;101876.09;2617599;36;20029;-63
2021/08/12 08:58:43;;;;;;;20.27;14.18;;;;;;;21.25;100.00;101876.38;2618682;31;20553;-63
2021/08/12 09:01:11;;;;;;;17.00;12.98;;;;;;;21.40;100.00;101879.16;2617854;36;20072;-63
2021/08/12 09:03:39;;;;;;;14.20;11.25;;;;;;;21.74;100.00;101885.25;2618033;31;20153;-63
2021/08/12 09:06:09;;;;;;;20.92;12.20;;;;;;;21.83;100.00;101867.69;2617796;31;20157;-62
2021/08/12 09:08:39;;;;;;;15.25;11.32;;;;;;;21.99;100.00;101867.53;2617550;36;20038;-62
2021/08/12 09:11:07;;;;;;;17.80;11.90;;;;;;;21.72;100.00;101871.75;2617810;36;20026;-62
2021/08/12 09:13:36;;;;;;;16.48;10.82;;;;;;;21.86;100.00;101872.81;2618558;31;20573;-63
2021/08/12 09:16:04;;;;;;;17.15;10.25;;;;;;;21.50;100.00;101876.19;2617621;36;20130;-63
2021/08/12 09:18:32;;;;;;;15.60;10.77;;;;;;;21.46;100.00;101877.59;2618069;36;20030;-63
2021/08/12 09:21:20;;;;;;;14.02;9.27;;;;;;;21.56;100.00;101877.38;2617849;36;20057;-63
2021/08/12 09:23:58;;;;;;;15.27;9.32;;;;;;;21.83;100.00;101874.06;2617645;36;20027;-63
2021/08/12 09:26:28;;;;;;;14.02;9.07;;;;;;;21.60;100.00;101878.69;2618231;31;20472;-62
2021/08/12 09:28:57;;;;;;;16.90;8.48;;;;;;;22.14;100.00;101877.66;2617420;31;20035;-63
2021/08/12 09:31:25;;;;;;;13.90;9.73;;;;;;;21.84;100.00;101875.72;2617670;36;20122;-63
2021/08/12 09:33:57;;;;;;;13.75;8.20;;;;;;;22.14;100.00;101870.31;2617855;36;20038;-64
2021/08/12 09:36:34;;;;;;;11.55;7.75;;;;;;;22.05;100.00;101885.13;2617524;36;20030;-63
2021/08/12 09:39:15;;;;;;;14.88;8.98;;;;;;;21.87;100.00;101880.84;2617803;36;20039;-63
2021/08/12 09:41:45;;;;;;;13.80;8.93;;;;;;;21.88;100.00;101876.22;2617465;36;20030;-62
2021/08/12 09:44:32;;;;;;;16.00;8.90;;;;;;;22.29;100.00;101881.28;2617504;36;20037;-63
2021/08/12 09:47:01;;;;;;;12.85;8.18;;;;;;;22.52;100.00;101877.59;2617503;36;20030;-62
2021/08/12 09:49:39;;;;;;;9.35;7.15;;;;;;;22.97;100.00;101883.00;2617628;36;20023;-63
2021/08/12 09:52:25;;;;;;;9.20;7.03;;;;;;;23.00;100.00;101872.50;2617491;36;20029;-63
2021/08/12 09:55:18;;;;;;;10.30;7.00;;;;;;;22.95;100.00;101874.94;2617532;36;20023;-61
2021/08/12 09:57:48;;;;;;;9.32;6.47;;;;;;;22.79;100.00;101869.69;2617797;36;20030;-63
2021/08/12 10:00:31;;;;;;;8.05;6.20;;;;;;;22.57;100.00;101877.88;2617925;36;20441;-61
2021/08/12 10:03:00;;;;;;;8.98;6.03;;;;;;;22.76;100.00;101884.66;2617707;36;20033;-61
2021/08/12 10:05:28;;;;;;;;;;;;;;;23.08;100.00;101877.84;2617832;36;20594;-61
2021/08/12 10:07:57;;;;;;;7.77;6.10;;;;;;;23.04;100.00;101879.28;2617600;36;19986;-62
2021/08/12 10:10:29;;;;;;;9.57;6.10;;;;;;;23.19;100.00;101882.03;2617597;31;20039;-61
2021/08/12 10:12:58;;;;;;;8.05;5.78;;;;;;;23.37;100.00;101883.47;2617298;36;20029;-62
2021/08/12 10:15:28;;;;;;;10.70;6.07;;;;;;;23.47;100.00;101885.88;2617640;36;20062;-62
2021/08/12 10:17:57;;;;;;;6.35;5.30;;;;;;;23.37;100.00;101876.06;2617443;36;20117;-62
2021/08/12 10:20:27;;;;;;;7.30;5.43;;;;;;;23.44;100.00;101881.63;2617613;36;20627;-61
2021/08/12 10:22:57;;;;;;;6.32;5.10;;;;;;;23.19;100.00;101883.91;2617971;36;20397;-61
2021/08/12 10:25:29;;;;;;;6.90;4.65;;;;;;;23.67;100.00;101880.56;2617480;36;20122;-61
2021/08/12 10:27:59;;;;;;;7.45;4.63;;;;;;;23.85;100.00;101878.19;2617941;36;20416;-62
2021/08/12 10:30:29;;;;;;;7.15;4.53;;;;;;;24.13;100.00;101888.31;2617172;36;20172;-62
2021/08/12 10:33:00;;;;;;;5.57;4.10;;;;;;;23.79;100.00;101878.97;2617494;36;20050;-62
2021/08/12 10:35:29;;;;;;;7.55;5.10;;;;;;;23.95;100.00;101883.34;2617417;36;20031;-62
2021/08/12 10:37:58;;;;;;;6.85;4.53;;;;;;;23.79;100.00;101879.81;2618284;31;20549;-62
2021/08/12 10:40:31;;;;;;;8.55;4.60;;;;;;;23.96;100.00;101871.31;2617524;36;20587;-62
2021/08/12 10:43:01;;;;;;;6.03;4.35;;;;;;;24.47;100.00;101867.38;2617458;36;20126;-62
2021/08/12 10:45:31;;;;;;;7.40;4.72;;;;;;;23.80;100.00;101862.25;2617061;31;20118;-62
2021/08/12 10:48:00;;;;;;;5.53;4.05;;;;;;;24.08;100.00;101871.59;2617363;36;20042;-63
2021/08/12 10:50:40;;;;;;;11.70;4.70;;;;;;;24.05;100.00;101872.00;2617311;31;20026;-62
2021/08/12 10:53:16;;;;;;;6.65;4.25;;;;;;;24.36;100.00;101868.78;2617455;31;20576;-62
2021/08/12 10:56:22;;;;;;;8.50;4.22;;;;;;;24.22;100.00;101864.25;2617478;36;20023;-62
2021/08/12 10:59:05;;;;;;;7.45;3.80;;;;;;;24.25;100.00;101866.63;2617859;31;20542;-62
2021/08/12 11:01:42;;;;;;;6.90;3.60;;;;;;;24.88;100.00;101872.03;2617465;36;20076;-62
2021/08/12 11:04:11;;;;;;;6.93;4.32;;;;;;;24.70;100.00;101880.00;2617382;36;20031;-62
2021/08/12 11:06:47;;;;;;;6.30;4.50;;;;;;;23.84;100.00;101876.47;2617453;36;20026;-62
2021/08/12 11:09:17;;;;;;;7.35;4.45;;;;;;;24.14;100.00;101877.16;2617365;36;20033;-62
2021/08/12 11:11:59;;;;;;;6.95;4.30;;;;;;;24.17;100.00;101875.03;2617116;36;20035;-62
2021/08/12 11:14:52;;;;;;;8.35;3.85;;;;;;;24.46;100.00;101874.78;2616646;36;20022;-62
2021/08/12 11:17:21;;;;;;;6.75;3.92;;;;;;;24.87;100.00;101873.09;2617101;36;20646;-62
2021/08/12 11:19:50;;;;;;;4.55;3.67;;;;;;;25.21;100.00;101870.41;2617200;31;20578;-62
2021/08/12 11:22:33;;;;;;;6.93;4.60;;;;;;;24.66;100.00;101879.53;2617224;36;20030;-62